sensor_id;sensor_type;location;lat;lon;timestamp;pressure;altitude;pressure_sealevel;temperature;humidity
35848;BME280;22332;51.954;20.118;2023-04-28T00:02:28;100653.04;;;2.76;58.08
35848;BME280;22332;51.954;20.118;2023-04-28T00:05:33;100651.36;;;2.71;58.26
35848;BME280;22332;51.954;20.118;2023-04-28T00:08:39;100655.58;;;2.66;58.53
35848;BME280;22332;51.954;20.118;2023-04-28T00:11:46;100653.86;;;2.62;58.46
35848;BME280;22332;51.954;20.118;2023-04-28T00:14:51;100653.34;;;2.62;58.56
35848;BME280;22332;51.954;20.118;2023-04-28T00:17:57;100654.17;;;2.63;58.57
35848;BME280;22332;51.954;20.118;2023-04-28T00:21:03;100655.52;;;2.61;58.58
35848;BME280;22332;51.954;20.118;2023-04-28T00:24:08;100656.75;;;2.58;58.54
35848;BME280;22332;51.954;20.118;2023-04-28T00:27:14;100656.84;;;2.53;58.77
35848;BME280;22332;51.954;20.118;2023-04-28T00:30:20;100656.83;;;2.50;58.81
35848;BME280;22332;51.954;20.118;2023-04-28T00:33:26;100660.13;;;2.46;58.89
35848;BME280;22332;51.954;20.118;2023-04-28T00:36:31;100659.27;;;2.39;58.91
35848;BME280;22332;51.954;20.118;2023-04-28T00:39:37;100665.32;;;2.34;58.91
35848;BME280;22332;51.954;20.118;2023-04-28T00:42:43;100661.13;;;2.31;59.03
35848;BME280;22332;51.954;20.118;2023-04-28T00:45:50;100662.44;;;2.27;59.24
35848;BME280;22332;51.954;20.118;2023-04-28T00:48:56;100666.73;;;2.22;59.30
35848;BME280;22332;51.954;20.118;2023-04-28T00:52:05;100665.20;;;2.19;59.31
35848;BME280;22332;51.954;20.118;2023-04-28T00:55:11;100667.38;;;2.14;59.36
35848;BME280;22332;51.954;20.118;2023-04-28T00:58:19;100674.19;;;2.09;59.41
35848;BME280;22332;51.954;20.118;2023-04-28T01:01:25;100671.66;;;2.04;59.40
35848;BME280;22332;51.954;20.118;2023-04-28T01:04:31;100670.83;;;2.00;59.55
35848;BME280;22332;51.954;20.118;2023-04-28T01:07:37;100674.05;;;1.99;59.79
35848;BME280;22332;51.954;20.118;2023-04-28T01:10:45;100676.55;;;1.99;59.82
35848;BME280;22332;51.954;20.118;2023-04-28T01:13:59;100677.29;;;1.94;59.81
35848;BME280;22332;51.954;20.118;2023-04-28T01:17:05;100676.16;;;1.86;59.62
35848;BME280;22332;51.954;20.118;2023-04-28T01:20:12;100679.65;;;1.81;59.98
35848;BME280;22332;51.954;20.118;2023-04-28T01:23:18;100675.19;;;1.82;59.98
35848;BME280;22332;51.954;20.118;2023-04-28T01:26:24;100677.19;;;1.84;60.05
35848;BME280;22332;51.954;20.118;2023-04-28T01:29:30;100677.80;;;1.85;60.08
35848;BME280;22332;51.954;20.118;2023-04-28T01:32:35;100674.06;;;1.86;59.89
35848;BME280;22332;51.954;20.118;2023-04-28T01:35:41;100676.95;;;1.88;60.16
35848;BME280;22332;51.954;20.118;2023-04-28T01:38:48;100676.47;;;1.93;60.09
35848;BME280;22332;51.954;20.118;2023-04-28T01:41:53;100674.79;;;1.95;60.19
35848;BME280;22332;51.954;20.118;2023-04-28T01:44:59;100677.16;;;1.97;60.10
35848;BME280;22332;51.954;20.118;2023-04-28T01:48:04;100676.13;;;1.96;60.15
35848;BME280;22332;51.954;20.118;2023-04-28T01:51:10;100675.31;;;1.95;60.03
35848;BME280;22332;51.954;20.118;2023-04-28T01:54:16;100677.33;;;1.93;60.20
35848;BME280;22332;51.954;20.118;2023-04-28T01:57:21;100676.32;;;1.93;60.27
35848;BME280;22332;51.954;20.118;2023-04-28T02:00:27;100671.93;;;1.90;60.28
35848;BME280;22332;51.954;20.118;2023-04-28T02:03:33;100669.02;;;1.85;60.37
35848;BME280;22332;51.954;20.118;2023-04-28T02:06:40;100667.96;;;1.80;60.33
35848;BME280;22332;51.954;20.118;2023-04-28T02:09:45;100669.64;;;1.74;60.44
35848;BME280;22332;51.954;20.118;2023-04-28T02:12:51;100671.94;;;1.71;60.54
35848;BME280;22332;51.954;20.118;2023-04-28T02:16:00;100674.18;;;1.62;60.42
35848;BME280;22332;51.954;20.118;2023-04-28T02:19:06;100673.88;;;1.55;60.61
35848;BME280;22332;51.954;20.118;2023-04-28T02:22:11;100677.12;;;1.50;60.80
35848;BME280;22332;51.954;20.118;2023-04-28T02:25:18;100679.58;;;1.47;60.54
35848;BME280;22332;51.954;20.118;2023-04-28T02:28:24;100684.92;;;1.42;60.82
35848;BME280;22332;51.954;20.118;2023-04-28T02:31:30;100681.11;;;1.38;60.80
35848;BME280;22332;51.954;20.118;2023-04-28T02:34:36;100682.52;;;1.35;60.79
35848;BME280;22332;51.954;20.118;2023-04-28T02:37:41;100680.91;;;1.32;60.87
35848;BME280;22332;51.954;20.118;2023-04-28T02:40:47;100682.63;;;1.30;60.91
35848;BME280;22332;51.954;20.118;2023-04-28T02:43:52;100682.65;;;1.26;60.84
35848;BME280;22332;51.954;20.118;2023-04-28T02:46:58;100685.23;;;1.20;60.88
35848;BME280;22332;51.954;20.118;2023-04-28T02:50:07;100684.16;;;1.17;60.87
35848;BME280;22332;51.954;20.118;2023-04-28T02:53:13;100686.64;;;1.14;61.09
35848;BME280;22332;51.954;20.118;2023-04-28T02:56:19;100685.45;;;1.13;61.09
35848;BME280;22332;51.954;20.118;2023-04-28T02:59:25;100684.95;;;1.12;61.18
35848;BME280;22332;51.954;20.118;2023-04-28T03:02:30;100681.75;;;1.10;61.16
35848;BME280;22332;51.954;20.118;2023-04-28T03:05:36;100683.48;;;1.07;61.17
35848;BME280;22332;51.954;20.118;2023-04-28T03:08:41;100686.11;;;1.07;61.17
35848;BME280;22332;51.954;20.118;2023-04-28T03:11:46;100689.86;;;1.09;61.31
35848;BME280;22332;51.954;20.118;2023-04-28T03:14:52;100684.15;;;1.11;61.23
35848;BME280;22332;51.954;20.118;2023-04-28T03:17:58;100689.34;;;1.15;61.29
35848;BME280;22332;51.954;20.118;2023-04-28T03:21:04;100688.05;;;1.13;61.31
35848;BME280;22332;51.954;20.118;2023-04-28T03:24:09;100690.10;;;1.11;61.44
35848;BME280;22332;51.954;20.118;2023-04-28T03:27:16;100691.88;;;1.07;61.37
35848;BME280;22332;51.954;20.118;2023-04-28T03:30:21;100693.39;;;1.05;61.38
35848;BME280;22332;51.954;20.118;2023-04-28T03:33:27;100690.91;;;1.06;61.54
35848;BME280;22332;51.954;20.118;2023-04-28T03:36:32;100694.59;;;1.06;61.33
35848;BME280;22332;51.954;20.118;2023-04-28T03:39:44;100692.35;;;1.08;61.71
35848;BME280;22332;51.954;20.118;2023-04-28T03:42:49;100694.43;;;1.15;61.66
35848;BME280;22332;51.954;20.118;2023-04-28T03:46:04;100696.96;;;1.17;61.58
35848;BME280;22332;51.954;20.118;2023-04-28T03:49:10;100698.27;;;1.16;61.68
35848;BME280;22332;51.954;20.118;2023-04-28T03:52:16;100696.52;;;1.26;61.71
35848;BME280;22332;51.954;20.118;2023-04-28T03:55:22;100697.86;;;1.40;61.77
35848;BME280;22332;51.954;20.118;2023-04-28T03:58:28;100702.08;;;1.49;61.88
35848;BME280;22332;51.954;20.118;2023-04-28T04:01:34;100701.30;;;1.60;61.75
35848;BME280;22332;51.954;20.118;2023-04-28T04:04:39;100699.57;;;1.73;61.91
35848;BME280;22332;51.954;20.118;2023-04-28T04:07:46;100701.69;;;1.82;61.79
35848;BME280;22332;51.954;20.118;2023-04-28T04:10:51;100701.66;;;1.88;61.80
35848;BME280;22332;51.954;20.118;2023-04-28T04:13:58;100705.73;;;1.97;61.87
35848;BME280;22332;51.954;20.118;2023-04-28T04:17:03;100707.72;;;2.06;61.96
35848;BME280;22332;51.954;20.118;2023-04-28T04:20:11;100704.92;;;2.15;62.11
35848;BME280;22332;51.954;20.118;2023-04-28T04:23:16;100704.70;;;2.27;62.09
35848;BME280;22332;51.954;20.118;2023-04-28T04:26:22;100705.08;;;2.42;62.08
35848;BME280;22332;51.954;20.118;2023-04-28T04:29:28;100702.89;;;2.61;62.20
35848;BME280;22332;51.954;20.118;2023-04-28T04:32:37;100707.41;;;2.89;62.40
35848;BME280;22332;51.954;20.118;2023-04-28T04:35:42;100704.65;;;3.17;62.42
35848;BME280;22332;51.954;20.118;2023-04-28T04:38:48;100704.69;;;3.47;62.36
35848;BME280;22332;51.954;20.118;2023-04-28T04:41:54;100699.95;;;3.80;62.35
35848;BME280;22332;51.954;20.118;2023-04-28T04:45:11;100699.43;;;4.16;62.46
35848;BME280;22332;51.954;20.118;2023-04-28T04:48:16;100693.20;;;4.46;62.32
35848;BME280;22332;51.954;20.118;2023-04-28T04:51:22;100692.77;;;4.73;62.35
35848;BME280;22332;51.954;20.118;2023-04-28T04:54:27;100698.64;;;5.03;62.39
35848;BME280;22332;51.954;20.118;2023-04-28T04:57:33;100701.17;;;5.30;62.38
35848;BME280;22332;51.954;20.118;2023-04-28T05:00:49;100700.77;;;5.56;62.53
35848;BME280;22332;51.954;20.118;2023-04-28T05:03:55;100700.27;;;5.78;62.67
35848;BME280;22332;51.954;20.118;2023-04-28T05:07:00;100693.09;;;5.99;62.91
35848;BME280;22332;51.954;20.118;2023-04-28T05:10:10;100695.35;;;6.21;62.78
35848;BME280;22332;51.954;20.118;2023-04-28T05:13:16;100696.63;;;6.42;62.75
35848;BME280;22332;51.954;20.118;2023-04-28T05:16:22;100699.27;;;6.61;63.08
35848;BME280;22332;51.954;20.118;2023-04-28T05:19:37;100696.59;;;6.80;63.32
35848;BME280;22332;51.954;20.118;2023-04-28T05:22:43;100700.38;;;6.97;63.32
35848;BME280;22332;51.954;20.118;2023-04-28T05:25:49;100698.00;;;7.14;63.62
35848;BME280;22332;51.954;20.118;2023-04-28T05:28:55;100700.55;;;7.34;63.48
35848;BME280;22332;51.954;20.118;2023-04-28T05:32:01;100699.72;;;7.53;63.36
35848;BME280;22332;51.954;20.118;2023-04-28T05:35:07;100700.23;;;7.71;63.26
35848;BME280;22332;51.954;20.118;2023-04-28T05:38:13;100702.67;;;7.89;63.40
35848;BME280;22332;51.954;20.118;2023-04-28T05:41:20;100701.43;;;8.04;62.79
35848;BME280;22332;51.954;20.118;2023-04-28T05:44:25;100700.14;;;8.18;62.42
35848;BME280;22332;51.954;20.118;2023-04-28T05:47:31;100696.16;;;8.27;61.85
35848;BME280;22332;51.954;20.118;2023-04-28T05:50:36;100695.83;;;8.36;61.77
35848;BME280;22332;51.954;20.118;2023-04-28T05:53:42;100694.80;;;8.46;61.74
35848;BME280;22332;51.954;20.118;2023-04-28T05:56:53;100688.39;;;8.55;61.50
35848;BME280;22332;51.954;20.118;2023-04-28T05:59:58;100691.38;;;8.64;61.36
35848;BME280;22332;51.954;20.118;2023-04-28T06:03:04;100691.15;;;8.71;61.20
35848;BME280;22332;51.954;20.118;2023-04-28T06:06:10;100693.88;;;8.79;61.10
35848;BME280;22332;51.954;20.118;2023-04-28T06:09:16;100689.80;;;8.85;60.80
35848;BME280;22332;51.954;20.118;2023-04-28T06:12:21;100689.16;;;8.90;60.50
35848;BME280;22332;51.954;20.118;2023-04-28T06:15:29;100690.95;;;8.96;60.12
35848;BME280;22332;51.954;20.118;2023-04-28T06:18:34;100687.31;;;9.01;59.81
35848;BME280;22332;51.954;20.118;2023-04-28T06:21:41;100689.48;;;9.07;59.18
35848;BME280;22332;51.954;20.118;2023-04-28T06:24:46;100687.66;;;9.12;58.91
35848;BME280;22332;51.954;20.118;2023-04-28T06:27:56;100686.91;;;9.16;58.69
35848;BME280;22332;51.954;20.118;2023-04-28T06:31:02;100690.91;;;9.21;58.52
35848;BME280;22332;51.954;20.118;2023-04-28T06:34:07;100689.19;;;9.23;56.29
35848;BME280;22332;51.954;20.118;2023-04-28T06:37:13;100688.55;;;9.22;57.04
35848;BME280;22332;51.954;20.118;2023-04-28T06:40:19;100690.80;;;9.29;57.13
35848;BME280;22332;51.954;20.118;2023-04-28T06:43:31;100686.79;;;9.34;57.29
35848;BME280;22332;51.954;20.118;2023-04-28T06:46:45;100687.65;;;9.40;57.17
35848;BME280;22332;51.954;20.118;2023-04-28T06:49:50;100686.69;;;9.48;56.87
35848;BME280;22332;51.954;20.118;2023-04-28T06:52:57;100688.00;;;9.55;56.76
35848;BME280;22332;51.954;20.118;2023-04-28T06:56:03;100689.98;;;9.62;56.40
35848;BME280;22332;51.954;20.118;2023-04-28T06:59:08;100690.27;;;9.69;56.45
35848;BME280;22332;51.954;20.118;2023-04-28T07:02:14;100688.92;;;9.76;55.73
35848;BME280;22332;51.954;20.118;2023-04-28T07:05:20;100686.14;;;9.86;55.99
35848;BME280;22332;51.954;20.118;2023-04-28T07:08:26;100682.16;;;10.00;55.38
35848;BME280;22332;51.954;20.118;2023-04-28T07:11:33;100683.42;;;10.16;55.56
35848;BME280;22332;51.954;20.118;2023-04-28T07:14:39;100677.52;;;10.30;55.09
35848;BME280;22332;51.954;20.118;2023-04-28T07:17:44;100677.45;;;10.37;55.11
35848;BME280;22332;51.954;20.118;2023-04-28T07:20:50;100673.14;;;10.45;54.67
35848;BME280;22332;51.954;20.118;2023-04-28T07:23:55;100674.95;;;10.54;54.89
35848;BME280;22332;51.954;20.118;2023-04-28T07:27:01;100672.48;;;10.67;55.15
35848;BME280;22332;51.954;20.118;2023-04-28T07:30:08;100666.12;;;10.84;54.10
35848;BME280;22332;51.954;20.118;2023-04-28T07:33:13;100662.89;;;11.01;54.29
35848;BME280;22332;51.954;20.118;2023-04-28T07:36:19;100663.47;;;11.20;53.64
35848;BME280;22332;51.954;20.118;2023-04-28T07:39:24;100659.63;;;11.35;53.50
35848;BME280;22332;51.954;20.118;2023-04-28T07:42:30;100653.51;;;11.60;53.95
35848;BME280;22332;51.954;20.118;2023-04-28T07:45:37;100649.02;;;11.90;53.48
35848;BME280;22332;51.954;20.118;2023-04-28T07:48:42;100644.42;;;12.14;52.68
35848;BME280;22332;51.954;20.118;2023-04-28T07:51:48;100645.31;;;12.34;52.30
35848;BME280;22332;51.954;20.118;2023-04-28T07:54:57;100647.10;;;12.39;49.54
35848;BME280;22332;51.954;20.118;2023-04-28T07:58:02;100641.05;;;12.41;51.75
35848;BME280;22332;51.954;20.118;2023-04-28T08:01:08;100643.88;;;12.52;51.63
35848;BME280;22332;51.954;20.118;2023-04-28T08:04:15;100642.32;;;12.39;48.26
35848;BME280;22332;51.954;20.118;2023-04-28T08:07:20;100645.91;;;12.17;49.90
35848;BME280;22332;51.954;20.118;2023-04-28T08:10:26;100645.75;;;12.07;50.21
35848;BME280;22332;51.954;20.118;2023-04-28T08:13:33;100646.81;;;11.99;49.20
35848;BME280;22332;51.954;20.118;2023-04-28T08:16:38;100641.46;;;11.98;50.19
35848;BME280;22332;51.954;20.118;2023-04-28T08:19:44;100643.67;;;12.06;50.34
35848;BME280;22332;51.954;20.118;2023-04-28T08:22:50;100642.77;;;12.13;50.29
35848;BME280;22332;51.954;20.118;2023-04-28T08:25:56;100639.99;;;12.14;49.47
35848;BME280;22332;51.954;20.118;2023-04-28T08:29:02;100637.65;;;12.06;46.09
35848;BME280;22332;51.954;20.118;2023-04-28T08:32:07;100635.56;;;11.93;48.31
35848;BME280;22332;51.954;20.118;2023-04-28T08:35:13;100635.35;;;12.00;49.02
35848;BME280;22332;51.954;20.118;2023-04-28T08:38:19;100633.48;;;12.10;48.81
35848;BME280;22332;51.954;20.118;2023-04-28T08:41:27;100626.63;;;12.23;49.05
35848;BME280;22332;51.954;20.118;2023-04-28T08:44:38;100621.80;;;12.37;48.45
35848;BME280;22332;51.954;20.118;2023-04-28T08:47:44;100623.17;;;12.43;48.62
35848;BME280;22332;51.954;20.118;2023-04-28T08:50:54;100627.42;;;12.47;48.37
35848;BME280;22332;51.954;20.118;2023-04-28T08:54:02;100627.70;;;12.54;48.45
35848;BME280;22332;51.954;20.118;2023-04-28T08:57:10;100624.91;;;12.66;48.48
35848;BME280;22332;51.954;20.118;2023-04-28T09:00:16;100615.55;;;12.88;48.11
35848;BME280;22332;51.954;20.118;2023-04-28T09:03:22;100611.50;;;13.15;47.86
35848;BME280;22332;51.954;20.118;2023-04-28T09:06:32;100608.98;;;13.39;47.49
35848;BME280;22332;51.954;20.118;2023-04-28T09:09:39;100600.26;;;13.64;47.81
35848;BME280;22332;51.954;20.118;2023-04-28T09:12:45;100601.36;;;13.82;47.83
35848;BME280;22332;51.954;20.118;2023-04-28T09:15:51;100594.84;;;14.01;47.53
35848;BME280;22332;51.954;20.118;2023-04-28T09:19:03;100598.06;;;14.23;47.20
35848;BME280;22332;51.954;20.118;2023-04-28T09:22:09;100593.27;;;14.40;46.71
35848;BME280;22332;51.954;20.118;2023-04-28T09:25:16;100585.77;;;14.56;46.67
35848;BME280;22332;51.954;20.118;2023-04-28T09:28:22;100583.50;;;14.76;46.38
35848;BME280;22332;51.954;20.118;2023-04-28T09:31:28;100581.45;;;14.95;46.24
35848;BME280;22332;51.954;20.118;2023-04-28T09:34:43;100579.85;;;15.09;46.01
35848;BME280;22332;51.954;20.118;2023-04-28T09:37:58;100583.50;;;15.21;46.34
35848;BME280;22332;51.954;20.118;2023-04-28T09:41:04;100579.04;;;15.27;45.96
35848;BME280;22332;51.954;20.118;2023-04-28T09:44:17;100576.89;;;15.13;44.67
35848;BME280;22332;51.954;20.118;2023-04-28T09:47:24;100575.14;;;14.95;45.15
35848;BME280;22332;51.954;20.118;2023-04-28T09:50:40;100569.21;;;14.99;45.07
35848;BME280;22332;51.954;20.118;2023-04-28T09:53:45;100565.06;;;15.03;45.24
35848;BME280;22332;51.954;20.118;2023-04-28T09:56:52;100561.36;;;15.10;45.26
35848;BME280;22332;51.954;20.118;2023-04-28T09:59:59;100558.92;;;15.20;45.00
35848;BME280;22332;51.954;20.118;2023-04-28T10:03:05;100552.94;;;15.25;44.71
35848;BME280;22332;51.954;20.118;2023-04-28T10:06:12;100537.13;;;15.38;44.55
35848;BME280;22332;51.954;20.118;2023-04-28T10:09:18;100543.14;;;15.38;43.83
35848;BME280;22332;51.954;20.118;2023-04-28T10:12:29;100538.67;;;15.23;43.29
35848;BME280;22332;51.954;20.118;2023-04-28T10:15:37;100535.67;;;15.22;44.29
35848;BME280;22332;51.954;20.118;2023-04-28T10:18:44;100534.73;;;15.23;44.34
35848;BME280;22332;51.954;20.118;2023-04-28T10:21:58;100532.70;;;15.17;43.97
35848;BME280;22332;51.954;20.118;2023-04-28T10:25:19;100533.55;;;15.13;43.40
35848;BME280;22332;51.954;20.118;2023-04-28T10:28:27;100529.25;;;14.99;43.89
35848;BME280;22332;51.954;20.118;2023-04-28T10:31:34;100524.84;;;14.91;43.58
35848;BME280;22332;51.954;20.118;2023-04-28T10:34:40;100522.44;;;14.87;43.55
35848;BME280;22332;51.954;20.118;2023-04-28T10:38:04;100519.70;;;14.91;43.15
35848;BME280;22332;51.954;20.118;2023-04-28T10:41:31;100514.52;;;15.00;43.39
35848;BME280;22332;51.954;20.118;2023-04-28T10:44:43;100506.05;;;15.19;43.21
35848;BME280;22332;51.954;20.118;2023-04-28T10:48:04;100508.34;;;15.29;43.29
35848;BME280;22332;51.954;20.118;2023-04-28T10:51:30;100506.20;;;15.40;43.17
35848;BME280;22332;51.954;20.118;2023-04-28T10:54:36;100504.18;;;15.53;42.63
35848;BME280;22332;51.954;20.118;2023-04-28T10:57:42;100501.70;;;15.57;41.72
35848;BME280;22332;51.954;20.118;2023-04-28T11:00:48;100492.08;;;15.63;42.10
35848;BME280;22332;51.954;20.118;2023-04-28T11:03:54;100484.91;;;15.78;42.24
35848;BME280;22332;51.954;20.118;2023-04-28T11:07:12;100490.36;;;15.90;42.19
35848;BME280;22332;51.954;20.118;2023-04-28T11:10:18;100490.05;;;15.91;41.97
35848;BME280;22332;51.954;20.118;2023-04-28T11:13:27;100484.65;;;15.97;42.28
35848;BME280;22332;51.954;20.118;2023-04-28T11:16:49;100479.48;;;16.12;42.23
35848;BME280;22332;51.954;20.118;2023-04-28T11:19:56;100477.98;;;16.19;42.06
35848;BME280;22332;51.954;20.118;2023-04-28T11:23:04;100477.01;;;16.12;41.76
35848;BME280;22332;51.954;20.118;2023-04-28T11:26:12;100466.94;;;16.03;41.57
35848;BME280;22332;51.954;20.118;2023-04-28T11:29:19;100468.49;;;15.94;41.45
35848;BME280;22332;51.954;20.118;2023-04-28T11:32:35;100470.63;;;15.87;41.53
35848;BME280;22332;51.954;20.118;2023-04-28T11:35:44;100466.42;;;15.86;41.07
35848;BME280;22332;51.954;20.118;2023-04-28T11:38:49;100464.36;;;15.94;41.59
35848;BME280;22332;51.954;20.118;2023-04-28T11:41:56;100460.55;;;16.11;41.40
35848;BME280;22332;51.954;20.118;2023-04-28T11:45:02;100457.38;;;16.15;41.14
35848;BME280;22332;51.954;20.118;2023-04-28T11:51:42;100453.77;;;16.20;40.80
35848;BME280;22332;51.954;20.118;2023-04-28T11:54:54;100454.66;;;16.27;40.94
35848;BME280;22332;51.954;20.118;2023-04-28T11:58:20;100444.27;;;16.32;40.76
35848;BME280;22332;51.954;20.118;2023-04-28T12:01:27;100439.52;;;16.29;40.82
35848;BME280;22332;51.954;20.118;2023-04-28T12:04:33;100437.20;;;16.23;40.55
35848;BME280;22332;51.954;20.118;2023-04-28T12:07:43;100428.80;;;16.19;39.89
35848;BME280;22332;51.954;20.118;2023-04-28T12:11:09;100420.31;;;16.22;40.67
35848;BME280;22332;51.954;20.118;2023-04-28T12:14:16;100424.55;;;16.34;40.30
35848;BME280;22332;51.954;20.118;2023-04-28T12:17:25;100424.06;;;16.35;40.38
35848;BME280;22332;51.954;20.118;2023-04-28T12:20:38;100428.30;;;16.42;40.12
35848;BME280;22332;51.954;20.118;2023-04-28T12:23:44;100424.77;;;16.44;40.03
35848;BME280;22332;51.954;20.118;2023-04-28T12:26:49;100422.02;;;16.36;39.12
35848;BME280;22332;51.954;20.118;2023-04-28T12:29:55;100413.87;;;16.16;38.94
35848;BME280;22332;51.954;20.118;2023-04-28T12:33:01;100415.15;;;16.13;39.82
35848;BME280;22332;51.954;20.118;2023-04-28T12:36:07;100409.96;;;16.16;39.53
35848;BME280;22332;51.954;20.118;2023-04-28T12:39:15;100405.30;;;16.19;39.78
35848;BME280;22332;51.954;20.118;2023-04-28T12:42:23;100396.34;;;16.20;39.62
35848;BME280;22332;51.954;20.118;2023-04-28T12:45:28;100392.90;;;16.27;39.95
35848;BME280;22332;51.954;20.118;2023-04-28T12:48:36;100384.61;;;16.31;39.62
35848;BME280;22332;51.954;20.118;2023-04-28T12:51:41;100381.70;;;16.27;39.71
35848;BME280;22332;51.954;20.118;2023-04-28T12:54:47;100382.66;;;16.21;39.50
35848;BME280;22332;51.954;20.118;2023-04-28T12:57:53;100380.66;;;16.23;40.01
35848;BME280;22332;51.954;20.118;2023-04-28T13:00:59;100382.50;;;16.27;39.12
35848;BME280;22332;51.954;20.118;2023-04-28T13:04:04;100371.46;;;16.10;37.62
35848;BME280;22332;51.954;20.118;2023-04-28T13:07:10;100363.67;;;15.97;39.46
35848;BME280;22332;51.954;20.118;2023-04-28T13:10:15;100363.55;;;16.04;39.65
35848;BME280;22332;51.954;20.118;2023-04-28T13:13:22;100360.77;;;16.10;39.82
35848;BME280;22332;51.954;20.118;2023-04-28T13:16:27;100357.52;;;16.16;39.27
35848;BME280;22332;51.954;20.118;2023-04-28T13:19:33;100358.85;;;16.21;39.42
35848;BME280;22332;51.954;20.118;2023-04-28T13:22:39;100349.30;;;16.20;39.04
35848;BME280;22332;51.954;20.118;2023-04-28T13:25:45;100347.32;;;16.14;38.78
35848;BME280;22332;51.954;20.118;2023-04-28T13:28:50;100346.27;;;16.15;38.84
35848;BME280;22332;51.954;20.118;2023-04-28T13:31:56;100347.43;;;16.16;39.03
35848;BME280;22332;51.954;20.118;2023-04-28T13:35:02;100344.85;;;16.21;38.93
35848;BME280;22332;51.954;20.118;2023-04-28T13:38:07;100340.39;;;16.20;38.01
35848;BME280;22332;51.954;20.118;2023-04-28T13:41:13;100332.86;;;16.14;38.16
35848;BME280;22332;51.954;20.118;2023-04-28T13:44:18;100329.77;;;16.17;39.00
35848;BME280;22332;51.954;20.118;2023-04-28T13:47:24;100328.21;;;16.19;39.04
35848;BME280;22332;51.954;20.118;2023-04-28T13:50:29;100326.63;;;16.12;39.16
35848;BME280;22332;51.954;20.118;2023-04-28T13:53:35;100320.95;;;16.02;38.89
35848;BME280;22332;51.954;20.118;2023-04-28T13:56:41;100316.98;;;15.93;39.16
35848;BME280;22332;51.954;20.118;2023-04-28T13:59:47;100312.45;;;15.88;38.97
35848;BME280;22332;51.954;20.118;2023-04-28T14:02:52;100305.98;;;15.82;38.75
35848;BME280;22332;51.954;20.118;2023-04-28T14:05:58;100306.65;;;15.79;39.03
35848;BME280;22332;51.954;20.118;2023-04-28T14:09:05;100301.16;;;15.79;38.90
35848;BME280;22332;51.954;20.118;2023-04-28T14:12:11;100298.15;;;15.80;38.71
35848;BME280;22332;51.954;20.118;2023-04-28T14:15:18;100289.86;;;15.89;38.91
35848;BME280;22332;51.954;20.118;2023-04-28T14:18:24;100286.23;;;16.01;38.95
35848;BME280;22332;51.954;20.118;2023-04-28T14:21:29;100281.73;;;16.04;38.60
35848;BME280;22332;51.954;20.118;2023-04-28T14:24:36;100282.91;;;15.99;38.90
35848;BME280;22332;51.954;20.118;2023-04-28T14:27:41;100283.27;;;15.99;38.82
35848;BME280;22332;51.954;20.118;2023-04-28T14:30:47;100281.90;;;15.99;38.81
35848;BME280;22332;51.954;20.118;2023-04-28T14:33:53;100272.37;;;15.94;38.87
35848;BME280;22332;51.954;20.118;2023-04-28T14:36:58;100271.67;;;15.94;38.88
35848;BME280;22332;51.954;20.118;2023-04-28T14:40:05;100264.13;;;15.94;39.17
35848;BME280;22332;51.954;20.118;2023-04-28T14:43:11;100264.98;;;15.93;39.01
35848;BME280;22332;51.954;20.118;2023-04-28T14:46:17;100264.50;;;15.90;38.72
35848;BME280;22332;51.954;20.118;2023-04-28T14:49:25;100262.61;;;15.85;38.88
35848;BME280;22332;51.954;20.118;2023-04-28T14:52:32;100257.61;;;15.82;38.85
35848;BME280;22332;51.954;20.118;2023-04-28T14:55:37;100254.84;;;15.79;38.63
35848;BME280;22332;51.954;20.118;2023-04-28T14:58:43;100255.85;;;15.77;39.01
35848;BME280;22332;51.954;20.118;2023-04-28T15:01:48;100253.29;;;15.78;38.71
35848;BME280;22332;51.954;20.118;2023-04-28T15:04:54;100251.46;;;15.75;38.80
35848;BME280;22332;51.954;20.118;2023-04-28T15:08:01;100247.67;;;15.72;39.04
35848;BME280;22332;51.954;20.118;2023-04-28T15:11:06;100247.08;;;15.70;39.01
35848;BME280;22332;51.954;20.118;2023-04-28T15:14:12;100244.84;;;15.70;38.77
35848;BME280;22332;51.954;20.118;2023-04-28T15:17:17;100241.38;;;15.67;38.65
35848;BME280;22332;51.954;20.118;2023-04-28T15:20:23;100241.98;;;15.67;38.71
35848;BME280;22332;51.954;20.118;2023-04-28T15:23:28;100238.80;;;15.66;38.69
35848;BME280;22332;51.954;20.118;2023-04-28T15:26:34;100238.52;;;15.64;38.43
35848;BME280;22332;51.954;20.118;2023-04-28T15:29:40;100237.14;;;15.58;38.48
35848;BME280;22332;51.954;20.118;2023-04-28T15:32:46;100239.39;;;15.50;38.41
35848;BME280;22332;51.954;20.118;2023-04-28T15:35:52;100239.67;;;15.40;38.58
35848;BME280;22332;51.954;20.118;2023-04-28T15:38:58;100235.59;;;15.35;39.00
35848;BME280;22332;51.954;20.118;2023-04-28T15:42:04;100233.12;;;15.36;38.73
35848;BME280;22332;51.954;20.118;2023-04-28T15:45:10;100228.66;;;15.39;38.74
35848;BME280;22332;51.954;20.118;2023-04-28T15:48:16;100224.96;;;15.42;38.80
35848;BME280;22332;51.954;20.118;2023-04-28T15:51:22;100222.04;;;15.42;38.92
35848;BME280;22332;51.954;20.118;2023-04-28T15:54:30;100219.85;;;15.42;38.62
35848;BME280;22332;51.954;20.118;2023-04-28T15:57:36;100217.66;;;15.40;38.84
35848;BME280;22332;51.954;20.118;2023-04-28T16:00:42;100211.62;;;15.39;38.67
35848;BME280;22332;51.954;20.118;2023-04-28T16:03:49;100207.91;;;15.37;38.83
35848;BME280;22332;51.954;20.118;2023-04-28T16:06:55;100202.75;;;15.36;38.57
35848;BME280;22332;51.954;20.118;2023-04-28T16:10:01;100202.50;;;15.33;38.53
35848;BME280;22332;51.954;20.118;2023-04-28T16:13:07;100206.09;;;15.25;38.67
35848;BME280;22332;51.954;20.118;2023-04-28T16:16:14;100205.72;;;15.22;38.74